createdAt,value
2024-02-10T00:00:28.186Z,1.08
2024-02-10T00:02:55.534Z,1.50
2024-02-10T00:05:23.822Z,2.53
2024-02-10T00:07:53.817Z,1.40
2024-02-10T00:10:26.353Z,1.15
2024-02-10T00:12:56.291Z,1.30
2024-02-10T00:15:24.728Z,1.23
2024-02-10T00:17:52.477Z,1.40
2024-02-10T00:20:21.728Z,1.30
2024-02-10T00:22:49.568Z,1.40
2024-02-10T00:25:17.185Z,1.02
2024-02-10T00:27:47.257Z,1.08
2024-02-10T00:30:18.087Z,0.70
2024-02-10T00:32:46.516Z,0.80
2024-02-10T00:35:13.720Z,0.98
2024-02-10T00:37:41.009Z,1.05
2024-02-10T00:40:09.010Z,1.00
2024-02-10T00:42:36.169Z,0.90
2024-02-10T00:45:08.289Z,2.05
2024-02-10T00:47:36.674Z,0.93
2024-02-10T00:50:04.746Z,1.20
2024-02-10T00:52:32.462Z,0.77
2024-02-10T00:54:59.784Z,1.40
2024-02-10T00:57:30.333Z,0.85
2024-02-10T00:59:58.077Z,1.13
2024-02-10T01:02:25.337Z,1.40
2024-02-10T01:04:54.698Z,1.45
2024-02-10T01:07:26.403Z,1.52
2024-02-10T01:09:53.790Z,1.50
2024-02-10T01:12:20.945Z,1.00
2024-02-10T01:14:48.207Z,1.20
2024-02-10T01:17:15.417Z,1.63
2024-02-10T01:19:51.655Z,0.90
2024-02-10T01:22:24.266Z,1.30
2024-02-10T01:24:57.385Z,1.48
2024-02-10T01:27:28.791Z,1.33
2024-02-10T01:29:57.824Z,1.57
2024-02-10T01:32:25.738Z,1.42
2024-02-10T01:34:54.979Z,1.25
2024-02-10T01:37:23.515Z,1.50
2024-02-10T01:39:56.186Z,1.38
2024-02-10T01:42:40.690Z,1.63
2024-02-10T01:45:13.825Z,1.33
2024-02-10T01:47:43.498Z,1.50
2024-02-10T01:50:11.967Z,1.20
2024-02-10T01:52:41.233Z,1.92
2024-02-10T01:55:11.236Z,0.98
2024-02-10T01:57:39.628Z,2.08
2024-02-10T02:00:09.457Z,1.40
2024-02-10T02:02:36.637Z,1.42
2024-02-10T02:05:05.659Z,1.20
2024-02-10T02:07:34.024Z,1.48
2024-02-10T02:10:02.778Z,1.25
2024-02-10T02:12:32.982Z,1.23
2024-02-10T02:15:01.950Z,1.20
2024-02-10T02:20:04.660Z,1.30
2024-02-10T02:22:32.691Z,1.52
2024-02-10T02:24:59.836Z,1.30
2024-02-10T02:27:26.983Z,1.70
2024-02-10T02:29:54.123Z,2.28
2024-02-10T02:32:21.254Z,1.35
2024-02-10T02:34:48.708Z,1.40
2024-02-10T02:37:16.048Z,1.45
2024-02-10T02:39:45.886Z,0.82
2024-02-10T02:42:13.008Z,1.23
2024-02-10T02:44:40.171Z,1.17
2024-02-10T02:47:07.700Z,1.70
2024-02-10T02:49:35.701Z,1.35
2024-02-10T02:52:02.928Z,1.65
2024-02-10T02:54:35.927Z,1.48
2024-02-10T02:57:03.144Z,1.40
2024-02-10T02:59:30.301Z,1.48
2024-02-10T03:01:57.674Z,1.48
2024-02-10T03:04:25.320Z,0.90
2024-02-10T03:06:52.831Z,1.92
2024-02-10T03:09:20.117Z,0.57
2024-02-10T03:11:49.714Z,1.10
2024-02-10T03:14:16.885Z,1.35
2024-02-10T03:16:45.940Z,1.33
2024-02-10T03:19:13.268Z,1.10
2024-02-10T03:21:40.567Z,1.70
2024-02-10T03:24:07.908Z,1.08
2024-02-10T03:26:39.284Z,2.33
2024-02-10T03:29:07.211Z,2.70
2024-02-10T03:31:34.891Z,1.85
2024-02-10T03:34:03.441Z,1.83
2024-02-10T03:36:31.956Z,2.10
2024-02-10T03:39:05.086Z,2.75
2024-02-10T03:41:32.554Z,2.28
2024-02-10T03:43:59.850Z,2.83
2024-02-10T03:46:27.439Z,3.47
2024-02-10T03:48:54.688Z,3.63
2024-02-10T03:51:21.968Z,3.35
2024-02-10T03:53:51.229Z,3.83
2024-02-10T03:56:18.406Z,3.15
2024-02-10T03:58:48.978Z,2.75
2024-02-10T04:01:16.866Z,3.60
2024-02-10T04:03:49.084Z,4.10
2024-02-10T04:06:17.391Z,3.15
2024-02-10T04:08:49.069Z,3.33
2024-02-10T04:11:20.784Z,3.13
2024-02-10T04:13:48.425Z,2.77
2024-02-10T04:16:15.714Z,2.92
2024-02-10T04:18:44.127Z,2.10
2024-02-10T04:21:13.824Z,3.13
2024-02-10T04:23:41.718Z,2.63
2024-02-10T04:26:09.589Z,2.38
2024-02-10T04:28:37.181Z,2.80
2024-02-10T04:31:05.653Z,2.90
2024-02-10T04:33:33.283Z,2.22
2024-02-10T04:36:00.681Z,2.17
2024-02-10T04:38:27.830Z,2.50
2024-02-10T04:40:55.173Z,2.58
2024-02-10T04:43:22.450Z,2.00
2024-02-10T04:45:52.617Z,2.25
2024-02-10T04:48:21.423Z,2.55
2024-02-10T04:50:49.163Z,2.25
2024-02-10T04:53:16.955Z,2.83
2024-02-10T04:55:44.991Z,2.38
2024-02-10T04:58:14.307Z,2.92
2024-02-10T05:00:42.874Z,2.22
2024-02-10T05:03:10.335Z,1.83
2024-02-10T05:05:37.751Z,2.40
2024-02-10T05:08:07.752Z,2.05
2024-02-10T05:10:35.137Z,1.90
2024-02-10T05:15:30.110Z,2.50
2024-02-10T05:17:57.420Z,2.30
2024-02-10T05:20:26.570Z,2.58
2024-02-10T05:22:58.006Z,1.90
2024-02-10T05:25:28.851Z,2.28
2024-02-10T05:28:01.231Z,2.30
2024-02-10T05:33:05.936Z,2.38
2024-02-10T05:35:33.733Z,2.53
2024-02-10T05:38:04.737Z,2.70
2024-02-10T05:40:32.567Z,2.27
2024-02-10T05:43:06.358Z,2.45
2024-02-10T05:45:34.956Z,3.00
2024-02-10T05:48:02.655Z,2.72
2024-02-10T05:50:30.730Z,2.90
2024-02-10T05:53:01.029Z,2.60
2024-02-10T05:55:29.674Z,2.75
2024-02-10T05:58:04.028Z,2.50
2024-02-10T06:00:32.473Z,2.80
2024-02-10T06:03:00.992Z,3.13
2024-02-10T06:05:29.808Z,3.83
2024-02-10T06:07:58.530Z,3.22
2024-02-10T06:10:26.272Z,2.53
2024-02-10T06:12:54.969Z,2.75
2024-02-10T06:15:25.105Z,2.50
2024-02-10T06:17:55.734Z,2.20
2024-02-10T06:20:24.482Z,2.20
2024-02-10T06:22:54.708Z,2.03
2024-02-10T06:25:29.495Z,3.28
2024-02-10T06:28:00.674Z,2.50
2024-02-10T06:30:32.424Z,2.22
2024-02-10T06:33:00.400Z,2.13
2024-02-10T06:35:28.765Z,2.70
2024-02-10T06:37:56.713Z,2.45
2024-02-10T06:40:24.967Z,3.08
2024-02-10T06:42:53.993Z,2.33
2024-02-10T06:45:27.836Z,1.88
2024-02-10T06:47:55.316Z,2.17
2024-02-10T06:50:26.119Z,2.13
2024-02-10T06:52:55.078Z,3.58
2024-02-10T06:55:27.586Z,2.40
2024-02-10T06:57:59.509Z,1.70
2024-02-10T07:00:29.063Z,2.13
2024-02-10T07:02:58.358Z,2.20
2024-02-10T07:05:26.679Z,1.90
2024-02-10T07:07:55.569Z,2.40
2024-02-10T07:10:24.948Z,1.75
2024-02-10T07:12:57.484Z,1.92
2024-02-10T07:15:27.353Z,1.42
2024-02-10T07:17:55.116Z,2.10
2024-02-10T07:20:24.511Z,1.63
2024-02-10T07:22:57.822Z,2.92
2024-02-10T07:25:30.004Z,2.80
2024-02-10T07:28:04.761Z,2.33
2024-02-10T07:30:34.688Z,2.38
2024-02-10T07:33:11.432Z,2.25
2024-02-10T07:35:40.998Z,3.10
2024-02-10T07:38:09.972Z,2.83
2024-02-10T07:40:37.940Z,3.10
2024-02-10T07:43:07.643Z,2.72
2024-02-10T07:45:35.268Z,2.20
2024-02-10T07:48:05.304Z,2.20
2024-02-10T07:50:32.754Z,2.10
2024-02-10T07:53:01.418Z,2.25
2024-02-10T07:55:29.210Z,1.70
2024-02-10T07:58:00.567Z,1.90
2024-02-10T08:00:28.914Z,2.78
2024-02-10T08:02:56.198Z,1.67
2024-02-10T08:05:23.534Z,1.90
2024-02-10T08:07:50.768Z,2.42
2024-02-10T08:10:20.400Z,1.70
2024-02-10T08:12:51.531Z,1.55
2024-02-10T08:15:19.248Z,2.17
2024-02-10T08:17:46.669Z,2.00
2024-02-10T08:20:14.129Z,1.73
2024-02-10T08:22:41.652Z,1.42
2024-02-10T08:25:11.641Z,1.90
2024-02-10T08:27:40.926Z,1.60
2024-02-10T08:30:11.363Z,1.55
2024-02-10T08:32:38.645Z,2.10
2024-02-10T08:35:08.208Z,1.25
2024-02-10T08:37:35.742Z,2.10
2024-02-10T08:40:04.771Z,1.58
2024-02-10T08:42:36.383Z,2.15
2024-02-10T08:45:06.796Z,1.63
2024-02-10T08:47:34.359Z,2.65
2024-02-10T08:50:03.009Z,1.95
2024-02-10T08:52:31.788Z,2.30
2024-02-10T08:54:59.122Z,2.00
2024-02-10T08:57:26.933Z,2.47
2024-02-10T08:59:54.961Z,1.70
2024-02-10T09:02:24.361Z,2.00
2024-02-10T09:04:54.694Z,2.47
2024-02-10T09:07:22.303Z,2.20
2024-02-10T09:09:49.569Z,2.35
2024-02-10T09:12:18.209Z,2.10
2024-02-10T09:14:45.996Z,2.08
2024-02-10T09:17:13.536Z,2.45
2024-02-10T09:19:43.042Z,3.10
2024-02-10T09:22:11.429Z,2.63
2024-02-10T09:24:41.220Z,2.40
2024-02-10T09:27:11.702Z,1.95
2024-02-10T09:29:39.582Z,2.33
2024-02-10T09:32:07.346Z,2.17
2024-02-10T09:34:34.968Z,2.30
2024-02-10T09:37:02.222Z,1.40
2024-02-10T09:39:29.478Z,2.15
2024-02-10T09:42:05.142Z,1.80
2024-02-10T09:44:33.927Z,1.45
2024-02-10T09:47:03.084Z,1.77
2024-02-10T09:49:34.021Z,1.30
2024-02-10T09:52:01.640Z,1.00
2024-02-10T09:54:28.979Z,1.17
2024-02-10T09:56:59.387Z,1.33
2024-02-10T09:59:28.190Z,0.90
2024-02-10T10:01:58.275Z,0.80
2024-02-10T10:04:25.603Z,0.80
2024-02-10T10:06:52.925Z,0.82
2024-02-10T10:09:20.873Z,0.70
2024-02-10T10:11:50.754Z,1.02
2024-02-10T10:14:18.612Z,1.48
2024-02-10T10:16:57.662Z,0.93
2024-02-10T10:19:29.865Z,0.93
2024-02-10T10:21:59.272Z,1.08
2024-02-10T10:24:28.248Z,0.80
2024-02-10T10:26:56.839Z,1.58
2024-02-10T10:29:24.466Z,1.17
2024-02-10T10:31:52.977Z,1.10
2024-02-10T10:34:21.512Z,0.75
2024-02-10T10:36:54.502Z,0.60
2024-02-10T10:39:23.255Z,0.28
2024-02-10T10:41:53.306Z,0.50
2024-02-10T10:44:23.038Z,1.20
2024-02-10T10:46:53.445Z,0.70
2024-02-10T10:49:21.041Z,0.50
2024-02-10T10:52:00.923Z,0.60
2024-02-10T10:54:32.984Z,0.60
2024-02-10T10:57:03.898Z,0.60
2024-02-10T10:59:37.113Z,0.63
2024-02-10T11:02:08.928Z,0.60
2024-02-10T11:04:36.744Z,0.88
2024-02-10T11:07:13.775Z,0.43
2024-02-10T11:09:46.560Z,0.43
2024-02-10T11:12:16.594Z,0.60
2024-02-10T11:14:57.853Z,0.45
2024-02-10T11:17:30.532Z,0.90
2024-02-10T11:20:02.306Z,0.55
2024-02-10T11:22:44.398Z,0.77
2024-02-10T11:25:17.494Z,0.85
2024-02-10T11:27:48.779Z,0.80
2024-02-10T11:30:16.343Z,0.70
2024-02-10T11:32:44.252Z,0.60
2024-02-10T11:35:14.389Z,0.50
2024-02-10T11:37:42.242Z,0.60
2024-02-10T11:40:13.105Z,0.75
2024-02-10T11:42:40.627Z,0.68
2024-02-10T11:45:11.393Z,0.50
2024-02-10T11:47:39.027Z,1.00
2024-02-10T11:50:07.991Z,0.70
2024-02-10T11:52:37.985Z,1.20
2024-02-10T11:55:05.860Z,0.80
2024-02-10T11:57:33.151Z,0.65
2024-02-10T12:00:01.228Z,0.80
2024-02-10T12:02:29.340Z,1.10
2024-02-10T12:04:56.894Z,0.50
2024-02-10T12:07:27.918Z,0.90
2024-02-10T12:09:57.239Z,1.05
2024-02-10T12:12:24.789Z,1.02
2024-02-10T12:14:52.114Z,1.50
2024-02-10T12:17:20.898Z,0.80
2024-02-10T12:19:48.435Z,1.13
2024-02-10T12:22:15.713Z,1.10
2024-02-10T12:24:44.857Z,1.00
2024-02-10T12:27:12.870Z,0.95
2024-02-10T12:29:40.214Z,0.77
2024-02-10T12:32:10.598Z,0.98
2024-02-10T12:34:38.020Z,0.70
2024-02-10T12:37:07.716Z,0.60
2024-02-10T12:39:34.910Z,1.00
2024-02-10T12:42:02.391Z,0.82
2024-02-10T12:44:30.023Z,1.30
2024-02-10T12:46:57.969Z,0.80
2024-02-10T12:49:27.200Z,0.60
2024-02-10T12:51:56.589Z,0.90
2024-02-10T12:54:29.453Z,1.10
2024-02-10T12:56:57.599Z,0.70
2024-02-10T12:59:25.047Z,1.38
2024-02-10T13:01:52.397Z,0.50
2024-02-10T13:04:22.464Z,1.13
2024-02-10T13:06:51.448Z,1.10
2024-02-10T13:09:19.625Z,0.95
2024-02-10T13:11:46.906Z,1.45
2024-02-10T13:14:14.206Z,0.80
2024-02-10T13:16:42.115Z,0.68
2024-02-10T13:19:15.474Z,1.10
2024-02-10T13:21:44.703Z,0.70
2024-02-10T13:24:11.917Z,0.63
2024-02-10T13:26:39.197Z,0.52
2024-02-10T13:29:06.386Z,0.40
2024-02-10T13:31:36.151Z,0.63
2024-02-10T13:34:11.729Z,0.88
2024-02-10T13:36:47.731Z,1.20
2024-02-10T13:39:33.730Z,0.80
2024-02-10T13:42:19.561Z,1.20
2024-02-10T13:45:05.069Z,0.88
2024-02-10T13:47:50.636Z,0.93
2024-02-10T13:50:36.427Z,0.95
2024-02-10T13:53:22.057Z,1.55
2024-02-10T13:56:08.171Z,0.93
2024-02-10T13:58:35.294Z,0.98
2024-02-10T14:01:02.720Z,1.00
2024-02-10T14:03:36.227Z,1.25
2024-02-10T14:06:11.045Z,1.10
2024-02-10T14:08:43.687Z,1.85
2024-02-10T14:11:21.651Z,1.05
2024-02-10T14:13:53.727Z,1.20
2024-02-10T14:16:31.006Z,1.17
2024-02-10T14:19:01.390Z,1.00
2024-02-10T14:21:39.564Z,1.30
2024-02-10T14:24:07.830Z,0.82
2024-02-10T14:26:39.237Z,0.90
2024-02-10T14:29:08.353Z,0.60
2024-02-10T14:31:48.569Z,0.70
2024-02-10T14:34:27.119Z,0.90
2024-02-10T14:36:57.293Z,1.00
2024-02-10T14:39:25.485Z,1.00
2024-02-10T14:41:53.449Z,1.05
2024-02-10T14:44:22.695Z,0.88
2024-02-10T14:46:50.729Z,0.80
2024-02-10T14:49:23.283Z,1.00
2024-02-10T14:51:50.596Z,0.90
2024-02-10T14:54:17.837Z,1.35
2024-02-10T14:56:47.327Z,1.10
2024-02-10T14:59:14.525Z,1.60
2024-02-10T15:01:41.941Z,0.98
2024-02-10T15:04:09.431Z,1.23
2024-02-10T15:06:38.238Z,1.23
2024-02-10T15:09:11.504Z,1.40
2024-02-10T15:11:39.017Z,1.85
2024-02-10T15:14:06.582Z,1.10
2024-02-10T15:16:34.169Z,0.93
2024-02-10T15:19:02.170Z,0.98
2024-02-10T15:21:30.767Z,1.10
2024-02-10T15:24:01.444Z,1.63
2024-02-10T15:26:28.932Z,1.02
2024-02-10T15:28:57.509Z,1.33
2024-02-10T15:31:26.619Z,1.52
2024-02-10T15:33:58.171Z,2.17
2024-02-10T15:36:38.158Z,1.73
2024-02-10T15:39:07.361Z,1.60
2024-02-10T15:41:35.894Z,1.70
2024-02-10T15:44:07.793Z,1.20
2024-02-10T15:46:36.823Z,1.73
2024-02-10T15:49:04.311Z,1.60
2024-02-10T15:51:36.811Z,1.60
2024-02-10T15:54:06.060Z,1.10
2024-02-10T15:56:34.324Z,1.35
2024-02-10T15:59:05.502Z,1.10
2024-02-10T16:01:37.662Z,1.63
2024-02-10T16:04:09.715Z,1.98
2024-02-10T16:06:40.266Z,1.63
2024-02-10T16:09:09.875Z,2.03
2024-02-10T16:11:37.120Z,1.80
2024-02-10T16:14:04.431Z,1.95
2024-02-10T16:16:32.153Z,1.65
2024-02-10T16:19:00.845Z,1.92
2024-02-10T16:21:29.905Z,1.58
2024-02-10T16:24:00.991Z,2.08
2024-02-10T16:26:28.555Z,1.33
2024-02-10T16:28:56.881Z,1.60
2024-02-10T16:31:25.839Z,1.70
2024-02-10T16:33:54.213Z,2.53
2024-02-10T16:36:25.438Z,1.67
2024-02-10T16:38:52.987Z,1.88
2024-02-10T16:41:21.477Z,1.65
2024-02-10T16:43:48.961Z,1.60
2024-02-10T16:46:19.131Z,1.55
2024-02-10T16:48:49.491Z,1.75
2024-02-10T16:51:34.660Z,1.75
2024-02-10T16:54:03.897Z,2.05
2024-02-10T16:56:35.693Z,2.28
2024-02-10T16:59:04.674Z,2.55
2024-02-10T17:01:32.282Z,2.42
2024-02-10T17:04:01.849Z,2.40
2024-02-10T17:06:29.881Z,2.75
2024-02-10T17:08:57.198Z,2.30
2024-02-10T17:11:24.347Z,3.35
2024-02-10T17:13:53.263Z,3.03
2024-02-10T17:16:20.490Z,2.85
2024-02-10T17:18:47.791Z,2.35
2024-02-10T17:21:15.049Z,1.80
2024-02-10T17:23:42.222Z,2.42
2024-02-10T17:26:14.312Z,1.55
2024-02-10T17:28:42.630Z,1.60
2024-02-10T17:31:14.619Z,1.98
2024-02-10T17:33:42.957Z,1.50
2024-02-10T17:36:10.863Z,1.60
2024-02-10T17:38:39.224Z,1.63
2024-02-10T17:41:13.322Z,2.10
2024-02-10T17:43:41.905Z,1.67
2024-02-10T17:46:10.152Z,1.75
2024-02-10T17:48:38.383Z,1.92
2024-02-10T17:51:08.567Z,2.40
2024-02-10T17:53:37.887Z,2.22
2024-02-10T17:56:11.715Z,2.03
2024-02-10T17:58:39.853Z,2.20
2024-02-10T18:01:07.525Z,1.60
2024-02-10T18:03:37.036Z,2.70
2024-02-10T18:06:12.446Z,2.25
2024-02-10T18:08:41.575Z,1.67
2024-02-10T18:11:15.323Z,2.00
2024-02-10T18:13:49.116Z,2.10
2024-02-10T18:16:17.944Z,2.15
2024-02-10T18:18:51.403Z,2.13
2024-02-10T18:21:19.002Z,2.05
2024-02-10T18:23:48.636Z,2.22
2024-02-10T18:26:17.286Z,2.78
2024-02-10T18:28:45.495Z,2.20
2024-02-10T18:31:15.719Z,2.25
2024-02-10T18:33:43.785Z,2.17
2024-02-10T18:36:12.529Z,2.05
2024-02-10T18:38:40.360Z,2.40
2024-02-10T18:41:07.578Z,3.05
2024-02-10T18:43:34.769Z,3.13
2024-02-10T18:46:01.894Z,3.45
2024-02-10T18:48:29.332Z,3.15
2024-02-10T18:50:56.652Z,2.88
2024-02-10T18:53:23.848Z,3.58
2024-02-10T18:55:53.308Z,2.63
2024-02-10T18:58:20.741Z,2.60
2024-02-10T19:00:50.605Z,2.50
2024-02-10T19:03:18.067Z,2.70
2024-02-10T19:05:47.993Z,2.47
2024-02-10T19:08:15.815Z,2.50
2024-02-10T19:10:44.996Z,2.70
2024-02-10T19:13:15.689Z,2.20
2024-02-10T19:15:43.493Z,2.65
2024-02-10T19:18:11.219Z,2.92
2024-02-10T19:20:38.499Z,2.53
2024-02-10T19:23:06.086Z,2.63
2024-02-10T19:25:33.509Z,2.60
2024-02-10T19:28:01.713Z,3.45
2024-02-10T19:30:28.960Z,3.05
2024-02-10T19:32:57.023Z,3.50
2024-02-10T19:35:28.287Z,3.58
2024-02-10T19:37:56.034Z,3.63
2024-02-10T19:40:24.590Z,3.75
2024-02-10T19:42:56.057Z,5.00
2024-02-10T19:45:26.582Z,3.00
2024-02-10T19:47:54.475Z,2.72
2024-02-10T19:50:22.054Z,2.90
2024-02-10T19:52:50.460Z,2.30
2024-02-10T19:55:21.684Z,3.00
2024-02-10T19:57:49.327Z,2.55
2024-02-10T20:00:18.012Z,2.63
2024-02-10T20:02:45.370Z,3.80
2024-02-10T20:05:15.891Z,4.15
2024-02-10T20:07:43.457Z,2.60
2024-02-10T20:10:11.404Z,3.72
2024-02-10T20:12:39.807Z,3.35
2024-02-10T20:15:07.546Z,2.67
2024-02-10T20:17:34.799Z,5.03
2024-02-10T20:20:08.284Z,3.53
2024-02-10T20:22:37.231Z,3.40
2024-02-10T20:25:06.317Z,3.42
2024-02-10T20:27:34.810Z,3.88
2024-02-10T20:30:02.039Z,4.47
2024-02-10T20:32:29.451Z,4.40
2024-02-10T20:34:57.135Z,4.47
2024-02-10T20:37:24.343Z,4.20
2024-02-10T20:39:52.705Z,4.07
2024-02-10T20:42:21.558Z,3.30
2024-02-10T20:44:50.843Z,3.10
2024-02-10T20:47:18.539Z,2.75
2024-02-10T20:49:46.236Z,2.97
2024-02-10T20:52:15.427Z,2.95
2024-02-10T20:54:49.584Z,3.13
2024-02-10T20:57:17.995Z,2.78
2024-02-10T20:59:45.339Z,3.38
2024-02-10T21:02:14.208Z,3.05
2024-02-10T21:04:42.877Z,3.45
2024-02-10T21:07:11.651Z,3.50
2024-02-10T21:09:38.934Z,3.33
2024-02-10T21:12:09.244Z,3.53
2024-02-10T21:14:43.273Z,3.58
2024-02-10T21:17:11.625Z,3.25
2024-02-10T21:19:39.701Z,4.70
2024-02-10T21:22:07.416Z,3.47
2024-02-10T21:24:34.716Z,3.15
2024-02-10T21:27:02.121Z,3.50
2024-02-10T21:29:29.301Z,3.75
2024-02-10T21:31:56.584Z,2.90
2024-02-10T21:34:25.730Z,3.17
2024-02-10T21:36:53.818Z,2.97
2024-02-10T21:39:21.101Z,3.22
2024-02-10T21:41:48.582Z,2.95
2024-02-10T21:44:16.575Z,3.20
2024-02-10T21:46:44.390Z,2.33
2024-02-10T21:49:13.007Z,3.58
2024-02-10T21:51:54.176Z,3.25
2024-02-10T21:54:25.640Z,2.65
2024-02-10T21:56:54.357Z,3.13
2024-02-10T21:59:21.842Z,2.50
2024-02-10T22:01:51.078Z,2.80
2024-02-10T22:04:18.526Z,3.35
2024-02-10T22:06:45.851Z,3.15
2024-02-10T22:09:13.066Z,3.20
2024-02-10T22:11:40.211Z,3.40
2024-02-10T22:14:11.170Z,3.35
2024-02-10T22:16:38.899Z,3.10
2024-02-10T22:19:06.299Z,3.20
2024-02-10T22:21:33.569Z,4.18
2024-02-10T22:24:00.894Z,3.05
2024-02-10T22:26:31.908Z,4.40
2024-02-10T22:28:59.657Z,4.93
2024-02-10T22:31:37.079Z,5.00
2024-02-10T22:34:05.573Z,4.97
2024-02-10T22:36:33.516Z,3.85
2024-02-10T22:39:11.259Z,3.65
2024-02-10T22:41:38.569Z,3.97
2024-02-10T22:44:06.377Z,3.28
2024-02-10T22:46:33.639Z,5.10
2024-02-10T22:49:02.241Z,3.70
2024-02-10T22:51:32.127Z,5.63
2024-02-10T22:53:59.294Z,7.13
2024-02-10T22:56:26.492Z,8.02
2024-02-10T22:58:54.941Z,5.82
2024-02-10T23:01:25.713Z,4.43
2024-02-10T23:03:56.682Z,3.63
2024-02-10T23:06:23.912Z,3.58
2024-02-10T23:08:51.404Z,3.88
2024-02-10T23:11:18.667Z,3.58
2024-02-10T23:13:48.701Z,3.00
2024-02-10T23:16:18.111Z,3.10
2024-02-10T23:18:47.439Z,3.92
2024-02-10T23:21:19.078Z,3.10
2024-02-10T23:23:46.512Z,3.13
2024-02-10T23:26:14.022Z,2.72
2024-02-10T23:28:44.628Z,2.80
2024-02-10T23:31:12.741Z,2.92
2024-02-10T23:33:40.166Z,2.97
2024-02-10T23:36:26.433Z,2.83
2024-02-10T23:38:59.326Z,2.58
2024-02-10T23:41:28.942Z,3.03
2024-02-10T23:43:56.225Z,3.15
2024-02-10T23:46:24.270Z,3.20
2024-02-10T23:48:55.503Z,2.70
2024-02-10T23:51:23.333Z,3.15
2024-02-10T23:53:51.355Z,4.20
2024-02-10T23:56:21.762Z,2.70
2024-02-10T23:58:50.342Z,2.85
